createdAt,value
2022-11-18T00:00:54.056Z,3.78
2022-11-18T00:01:57.061Z,4.18
2022-11-18T00:02:59.378Z,3.97
2022-11-18T00:04:01.800Z,4.25
2022-11-18T00:05:04.341Z,4.30
2022-11-18T00:06:10.602Z,3.95
2022-11-18T00:07:13.064Z,3.95
2022-11-18T00:08:15.358Z,4.30
2022-11-18T00:09:18.068Z,3.78
2022-11-18T00:10:20.576Z,3.80
2022-11-18T00:11:44.252Z,4.22
2022-11-18T00:13:05.341Z,3.28
2022-11-18T00:14:19.616Z,3.85
2022-11-18T00:15:23.486Z,2.95
2022-11-18T00:16:27.725Z,3.63
2022-11-18T00:17:32.486Z,4.47
2022-11-18T00:18:35.365Z,4.88
2022-11-18T00:19:40.004Z,4.85
2022-11-18T00:20:42.427Z,4.45
2022-11-18T00:21:44.902Z,4.18
2022-11-18T00:22:47.263Z,4.15
2022-11-18T00:23:49.615Z,4.03
2022-11-18T00:24:51.908Z,3.95
2022-11-18T00:25:54.326Z,4.18
2022-11-18T00:26:57.134Z,4.13
2022-11-18T00:27:59.503Z,4.05
2022-11-18T00:29:02.208Z,4.40
2022-11-18T00:30:04.843Z,3.40
2022-11-18T00:31:12.511Z,3.13
2022-11-18T00:32:14.797Z,3.13
2022-11-18T00:33:17.090Z,2.85
2022-11-18T00:34:23.226Z,3.90
2022-11-18T00:35:25.596Z,3.25
2022-11-18T00:36:29.279Z,3.33
2022-11-18T00:37:31.630Z,3.17
2022-11-18T00:38:33.986Z,3.22
2022-11-18T00:39:36.301Z,3.25
2022-11-18T00:40:38.789Z,2.92
2022-11-18T00:41:59.918Z,2.75
2022-11-18T00:43:02.230Z,2.47
2022-11-18T00:44:09.333Z,2.67
2022-11-18T00:45:12.119Z,2.83
2022-11-18T00:46:14.729Z,3.38
2022-11-18T00:47:17.077Z,2.60
2022-11-18T00:48:21.728Z,2.92
2022-11-18T00:49:24.617Z,2.78
2022-11-18T00:50:26.992Z,3.20
2022-11-18T00:51:29.400Z,3.25
2022-11-18T00:52:31.654Z,3.50
2022-11-18T00:53:34.073Z,3.85
2022-11-18T00:54:36.403Z,3.05
2022-11-18T00:55:38.704Z,2.95
2022-11-18T00:56:41.073Z,2.50
2022-11-18T00:57:43.400Z,3.22
2022-11-18T00:58:45.780Z,2.88
2022-11-18T00:59:50.144Z,2.90
2022-11-18T01:00:53.244Z,2.50
2022-11-18T01:01:55.723Z,2.33
2022-11-18T01:02:58.040Z,2.72
2022-11-18T01:04:00.522Z,2.47
2022-11-18T01:05:03.111Z,2.10
2022-11-18T01:06:05.494Z,2.50
2022-11-18T01:07:08.094Z,2.28
2022-11-18T01:08:12.315Z,2.28
2022-11-18T01:09:14.973Z,2.20
2022-11-18T01:10:17.544Z,1.85
2022-11-18T01:11:38.638Z,1.83
2022-11-18T01:13:00.494Z,2.17
2022-11-18T01:14:02.951Z,2.00
2022-11-18T01:15:05.644Z,2.30
2022-11-18T01:16:08.087Z,2.15
2022-11-18T01:17:10.433Z,2.03
2022-11-18T01:18:13.376Z,2.45
2022-11-18T01:19:16.020Z,1.83
2022-11-18T01:20:18.565Z,1.85
2022-11-18T01:21:21.458Z,1.85
2022-11-18T01:22:23.815Z,2.60
2022-11-18T01:23:26.124Z,1.60
2022-11-18T01:24:29.887Z,2.08
2022-11-18T01:25:32.402Z,2.20
2022-11-18T01:26:34.826Z,1.98
2022-11-18T01:27:37.179Z,2.22
2022-11-18T01:28:40.242Z,1.70
2022-11-18T01:29:42.723Z,1.63
2022-11-18T01:30:45.664Z,2.28
2022-11-18T01:32:09.090Z,2.20
2022-11-18T01:33:10.343Z,2.40
2022-11-18T01:34:12.663Z,1.95
2022-11-18T01:35:15.135Z,2.10
2022-11-18T01:36:23.941Z,1.70
2022-11-18T01:37:26.332Z,1.60
2022-11-18T01:38:28.853Z,2.15
2022-11-18T01:39:31.522Z,1.98
2022-11-18T01:40:35.015Z,1.90
2022-11-18T01:41:37.416Z,1.65
2022-11-18T01:42:39.775Z,1.73
2022-11-18T01:43:54.448Z,1.65
2022-11-18T01:44:58.928Z,2.00
2022-11-18T01:46:01.242Z,1.38
2022-11-18T01:47:03.642Z,1.60
2022-11-18T01:48:06.048Z,2.60
2022-11-18T01:49:13.116Z,1.67
2022-11-18T01:50:17.920Z,1.70
2022-11-18T01:51:26.486Z,1.40
2022-11-18T01:52:31.015Z,1.35
2022-11-18T01:53:40.224Z,1.63
2022-11-18T01:54:48.354Z,1.63
2022-11-18T01:55:54.051Z,1.55
2022-11-18T01:57:00.375Z,1.73
2022-11-18T01:58:15.667Z,1.50
2022-11-18T01:59:31.633Z,1.90
2022-11-18T02:00:34.634Z,1.80
2022-11-18T02:01:37.414Z,1.65
2022-11-18T02:02:39.782Z,1.60
2022-11-18T02:03:44.540Z,1.42
2022-11-18T02:04:49.520Z,1.63
2022-11-18T02:05:53.769Z,1.60
2022-11-18T02:06:57.013Z,1.48
2022-11-18T02:08:01.601Z,1.38
2022-11-18T02:09:05.051Z,1.20
2022-11-18T02:10:09.081Z,1.35
2022-11-18T02:11:34.260Z,1.70
2022-11-18T02:12:37.832Z,1.17
2022-11-18T02:13:40.119Z,1.40
2022-11-18T02:14:46.597Z,1.35
2022-11-18T02:16:15.813Z,1.48
2022-11-18T02:17:36.170Z,1.40
2022-11-18T02:19:01.895Z,1.33
2022-11-18T02:20:22.806Z,1.30
2022-11-18T02:21:59.904Z,1.40
2022-11-18T02:23:46.062Z,1.10
2022-11-18T02:25:19.388Z,1.30
2022-11-18T02:26:40.499Z,1.35
2022-11-18T02:27:57.590Z,1.20
2022-11-18T02:29:12.304Z,1.30
2022-11-18T02:30:16.736Z,1.20
2022-11-18T02:31:45.541Z,1.10
2022-11-18T02:33:04.814Z,1.25
2022-11-18T02:34:21.346Z,1.38
2022-11-18T02:35:31.586Z,1.45
2022-11-18T02:36:43.605Z,1.20
2022-11-18T02:37:49.778Z,1.20
2022-11-18T02:39:02.999Z,1.00
2022-11-18T02:40:33.341Z,1.10
2022-11-18T02:41:39.535Z,1.20
2022-11-18T02:42:44.636Z,1.13
2022-11-18T02:43:52.505Z,1.00
2022-11-18T02:45:00.149Z,1.25
2022-11-18T02:46:08.443Z,1.13
2022-11-18T02:47:14.552Z,1.40
2022-11-18T02:48:18.840Z,1.35
2022-11-18T02:49:29.041Z,1.17
2022-11-18T02:50:33.535Z,1.48
2022-11-18T02:51:37.687Z,1.10
2022-11-18T02:52:41.805Z,0.77
2022-11-18T02:53:47.378Z,1.35
2022-11-18T02:54:51.547Z,1.05
2022-11-18T02:55:55.386Z,1.23
2022-11-18T02:56:58.692Z,1.35
2022-11-18T02:58:02.644Z,1.00
2022-11-18T02:59:05.528Z,0.80
2022-11-18T03:00:08.342Z,1.20
2022-11-18T03:01:40.138Z,1.20
2022-11-18T03:02:48.859Z,1.30
2022-11-18T03:03:51.526Z,1.02
2022-11-18T03:04:57.637Z,1.40
2022-11-18T03:06:24.704Z,0.85
2022-11-18T03:07:36.308Z,0.88
2022-11-18T03:09:10.441Z,0.93
2022-11-18T03:10:12.835Z,0.80
2022-11-18T03:11:15.253Z,0.77
2022-11-18T03:12:53.881Z,0.93
2022-11-18T03:14:23.039Z,1.00
2022-11-18T03:15:45.004Z,1.63
2022-11-18T03:17:28.783Z,1.23
2022-11-18T03:18:45.086Z,1.50
2022-11-18T03:20:22.367Z,1.52
2022-11-18T03:21:37.634Z,1.20
2022-11-18T03:22:55.418Z,0.80
2022-11-18T03:24:18.881Z,1.45
2022-11-18T03:25:21.264Z,1.13
2022-11-18T03:26:36.110Z,1.10
2022-11-18T03:27:57.058Z,1.15
2022-11-18T03:29:15.149Z,0.82
2022-11-18T03:30:20.653Z,0.73
2022-11-18T03:31:30.657Z,0.90
2022-11-18T03:32:38.493Z,1.05
2022-11-18T03:33:52.084Z,0.90
2022-11-18T03:35:01.505Z,0.55
2022-11-18T03:36:06.947Z,0.80
2022-11-18T03:37:12.523Z,0.80
2022-11-18T03:38:24.974Z,0.80
2022-11-18T03:39:31.798Z,0.80
2022-11-18T03:40:38.097Z,1.08
2022-11-18T03:41:46.029Z,0.90
2022-11-18T03:42:52.738Z,1.05
2022-11-18T03:44:04.553Z,1.23
2022-11-18T03:45:21.344Z,13.90
2022-11-18T03:46:30.790Z,48.22
2022-11-18T03:47:37.575Z,10.55
2022-11-18T03:48:50.943Z,4.78
2022-11-18T03:49:58.943Z,3.95
2022-11-18T03:51:06.776Z,3.13
2022-11-18T03:52:18.409Z,2.53
2022-11-18T03:53:22.631Z,2.67
2022-11-18T03:54:30.778Z,2.35
2022-11-18T03:55:40.309Z,2.05
2022-11-18T03:56:47.965Z,1.88
2022-11-18T03:58:00.553Z,2.65
2022-11-18T03:59:13.804Z,3.47
2022-11-18T04:00:20.190Z,3.70
2022-11-18T04:01:31.730Z,3.83
2022-11-18T04:02:34.773Z,3.33
2022-11-18T04:03:37.536Z,2.08
2022-11-18T04:04:41.624Z,3.03
2022-11-18T04:05:45.430Z,1.90
2022-11-18T04:07:02.195Z,2.50
2022-11-18T04:08:10.610Z,2.35
2022-11-18T04:09:18.889Z,1.75
2022-11-18T04:10:37.487Z,27.25
2022-11-18T04:12:05.257Z,45.17
2022-11-18T04:13:18.471Z,14.30
2022-11-18T04:14:20.902Z,9.38
2022-11-18T04:15:24.990Z,7.78
2022-11-18T04:16:28.339Z,6.45
2022-11-18T04:17:30.984Z,6.20
2022-11-18T04:18:33.690Z,5.15
2022-11-18T04:19:36.477Z,4.80
2022-11-18T04:20:39.190Z,4.72
2022-11-18T04:21:41.460Z,4.05
2022-11-18T04:22:43.921Z,4.43
2022-11-18T04:23:46.304Z,4.60
2022-11-18T04:24:48.692Z,4.05
2022-11-18T04:25:51.042Z,3.67
2022-11-18T04:26:53.412Z,3.42
2022-11-18T04:27:55.753Z,4.15
2022-11-18T04:28:58.287Z,3.40
2022-11-18T04:30:00.629Z,3.40
2022-11-18T04:31:02.980Z,3.20
2022-11-18T04:32:05.911Z,3.25
2022-11-18T04:33:08.292Z,3.63
2022-11-18T04:34:10.682Z,3.00
2022-11-18T04:35:14.056Z,3.50
2022-11-18T04:36:16.394Z,41.72
2022-11-18T04:37:18.695Z,21.08
2022-11-18T04:38:22.236Z,10.82
2022-11-18T04:39:25.062Z,6.90
2022-11-18T04:40:27.345Z,4.97
2022-11-18T04:41:48.524Z,5.75
2022-11-18T04:42:50.887Z,4.07
2022-11-18T04:43:53.195Z,3.55
2022-11-18T04:44:55.518Z,3.65
2022-11-18T04:45:57.860Z,3.03
2022-11-18T04:47:02.733Z,2.97
2022-11-18T04:48:05.393Z,2.70
2022-11-18T04:49:09.006Z,2.50
2022-11-18T04:50:11.261Z,3.33
2022-11-18T04:51:13.648Z,13.82
2022-11-18T04:52:16.307Z,26.40
2022-11-18T04:53:18.607Z,13.13
2022-11-18T04:54:21.627Z,14.23
2022-11-18T04:55:23.968Z,13.45
2022-11-18T04:56:26.284Z,13.35
2022-11-18T04:57:28.572Z,12.10
2022-11-18T04:58:30.900Z,10.05
2022-11-18T04:59:33.544Z,10.55
2022-11-18T05:00:35.868Z,9.90
2022-11-18T05:01:38.198Z,9.50
2022-11-18T05:02:40.472Z,8.98
2022-11-18T05:03:47.657Z,8.77
2022-11-18T05:04:52.655Z,8.80
2022-11-18T05:05:54.903Z,8.32
2022-11-18T05:06:58.063Z,8.02
2022-11-18T05:08:00.447Z,7.82
2022-11-18T05:09:02.892Z,8.32
2022-11-18T05:10:05.928Z,7.53
2022-11-18T05:11:27.026Z,7.97
2022-11-18T05:12:48.136Z,7.72
2022-11-18T05:13:50.957Z,7.63
2022-11-18T05:14:53.249Z,8.35
2022-11-18T05:15:55.571Z,7.63
2022-11-18T05:16:59.868Z,7.85
2022-11-18T05:18:02.232Z,7.38
2022-11-18T05:19:05.685Z,8.02
2022-11-18T05:20:08.489Z,6.97
2022-11-18T05:21:11.037Z,7.03
2022-11-18T05:22:14.911Z,7.30
2022-11-18T05:23:17.250Z,7.15
2022-11-18T05:24:19.935Z,6.80
2022-11-18T05:25:22.288Z,7.07
2022-11-18T05:26:24.740Z,7.07
2022-11-18T05:27:27.062Z,7.00
2022-11-18T05:28:29.386Z,6.90
2022-11-18T05:29:31.712Z,7.50
2022-11-18T05:30:34.030Z,6.88
2022-11-18T05:31:36.783Z,6.40
2022-11-18T05:32:39.077Z,7.30
2022-11-18T05:33:42.402Z,7.07
2022-11-18T05:34:44.688Z,6.25
2022-11-18T05:35:51.089Z,7.10
2022-11-18T05:36:56.168Z,6.15
2022-11-18T05:37:58.497Z,6.75
2022-11-18T05:39:01.390Z,6.63
2022-11-18T05:40:04.131Z,6.70
2022-11-18T05:41:07.231Z,6.93
2022-11-18T05:42:29.285Z,6.32
2022-11-18T05:43:32.484Z,6.55
2022-11-18T05:44:34.801Z,6.68
2022-11-18T05:45:38.042Z,6.35
2022-11-18T05:46:40.660Z,6.55
2022-11-18T05:48:01.427Z,6.00
2022-11-18T05:49:03.760Z,6.50
2022-11-18T05:50:06.729Z,6.15
2022-11-18T05:51:09.213Z,5.65
2022-11-18T05:52:11.562Z,6.65
2022-11-18T05:53:15.020Z,5.85
2022-11-18T05:54:19.526Z,5.75
2022-11-18T05:55:25.698Z,6.45
2022-11-18T05:56:38.066Z,75.90
2022-11-18T05:57:40.789Z,42.67
2022-11-18T05:58:43.167Z,83.90
2022-11-18T05:59:45.808Z,60.42
2022-11-18T06:00:52.686Z,56.78
2022-11-18T06:02:02.412Z,53.22
2022-11-18T06:03:12.730Z,42.92
2022-11-18T06:04:39.047Z,27.90
2022-11-18T06:05:41.443Z,23.90
2022-11-18T06:06:45.923Z,19.80
2022-11-18T06:07:48.278Z,17.67
2022-11-18T06:09:02.453Z,17.73
2022-11-18T06:10:06.304Z,18.83
2022-11-18T06:11:12.344Z,17.88
2022-11-18T06:12:19.571Z,17.30
2022-11-18T06:13:31.178Z,17.27
2022-11-18T06:14:47.540Z,16.48
2022-11-18T06:15:49.965Z,15.90
2022-11-18T06:16:56.405Z,15.90
2022-11-18T06:18:07.044Z,16.08
2022-11-18T06:19:09.492Z,14.88
2022-11-18T06:20:12.145Z,14.63
2022-11-18T06:21:14.723Z,13.40
2022-11-18T06:22:17.044Z,14.63
2022-11-18T06:23:19.428Z,14.48
2022-11-18T06:24:21.843Z,14.80
2022-11-18T06:25:24.884Z,14.40
2022-11-18T06:26:27.393Z,13.57
2022-11-18T06:27:31.040Z,13.55
2022-11-18T06:28:34.378Z,13.30
2022-11-18T06:29:36.671Z,14.50
2022-11-18T06:30:39.284Z,13.52
2022-11-18T06:31:41.598Z,13.40
2022-11-18T06:32:43.890Z,13.23
2022-11-18T06:33:46.210Z,12.68
2022-11-18T06:34:48.574Z,12.60
2022-11-18T06:35:50.876Z,59.97
2022-11-18T06:36:53.213Z,39.50
2022-11-18T06:37:55.551Z,29.58
2022-11-18T06:39:05.629Z,26.77
2022-11-18T06:40:08.575Z,20.60
2022-11-18T06:41:10.940Z,18.08
2022-11-18T06:42:33.489Z,18.00
2022-11-18T06:43:38.740Z,18.70
2022-11-18T06:44:41.064Z,17.38
2022-11-18T06:46:08.732Z,17.58
2022-11-18T06:47:11.546Z,18.27
2022-11-18T06:48:13.860Z,18.40
2022-11-18T06:49:16.657Z,18.77
2022-11-18T06:50:19.331Z,17.58
2022-11-18T06:51:21.669Z,17.60
2022-11-18T06:52:24.247Z,18.10
2022-11-18T06:53:26.826Z,17.67
2022-11-18T06:54:29.170Z,16.10
2022-11-18T06:55:31.461Z,17.08
2022-11-18T06:56:35.077Z,16.92
2022-11-18T06:57:37.358Z,16.52
2022-11-18T06:58:40.283Z,17.00
2022-11-18T06:59:42.637Z,16.75
2022-11-18T07:00:44.934Z,17.50
2022-11-18T07:01:47.241Z,16.55
2022-11-18T07:02:49.561Z,14.98
2022-11-18T07:03:52.174Z,16.38
2022-11-18T07:04:54.550Z,15.63
2022-11-18T07:05:59.201Z,14.32
2022-11-18T07:07:01.569Z,15.98
2022-11-18T07:08:04.019Z,15.88
2022-11-18T07:09:07.200Z,16.05
2022-11-18T07:10:10.284Z,14.95
2022-11-18T07:11:15.686Z,13.63
2022-11-18T07:12:18.127Z,13.57
2022-11-18T07:13:20.470Z,14.40
2022-11-18T07:14:22.842Z,15.48
2022-11-18T07:15:25.196Z,35.33
2022-11-18T07:16:28.957Z,14.48
2022-11-18T07:17:31.480Z,32.63
2022-11-18T07:18:35.464Z,27.00
2022-11-18T07:19:38.979Z,24.17
2022-11-18T07:20:41.297Z,19.35
2022-11-18T07:21:43.904Z,18.80
2022-11-18T07:22:47.444Z,18.77
2022-11-18T07:23:49.884Z,17.90
2022-11-18T07:24:52.236Z,18.63
2022-11-18T07:25:55.761Z,18.17
2022-11-18T07:26:58.264Z,17.90
2022-11-18T07:28:00.604Z,17.77
2022-11-18T07:29:03.151Z,18.05
2022-11-18T07:30:06.069Z,17.33
2022-11-18T07:31:13.581Z,18.77
2022-11-18T07:32:15.915Z,17.33
2022-11-18T07:33:18.713Z,17.42
2022-11-18T07:34:21.041Z,18.08
2022-11-18T07:35:23.387Z,17.77
2022-11-18T07:36:33.929Z,11.32
2022-11-18T07:37:37.863Z,6.75
2022-11-18T07:38:41.087Z,9.57
2022-11-18T07:39:43.418Z,14.32
2022-11-18T07:40:45.781Z,10.95
2022-11-18T07:41:48.100Z,7.00
2022-11-18T07:42:50.497Z,10.38
2022-11-18T07:44:01.358Z,4.72
2022-11-18T07:45:04.488Z,7.10
2022-11-18T07:46:25.709Z,7.90
2022-11-18T07:47:28.031Z,8.23
2022-11-18T07:48:30.300Z,9.27
2022-11-18T07:49:32.757Z,9.25
2022-11-18T07:50:35.094Z,9.73
2022-11-18T07:51:40.067Z,11.20
2022-11-18T07:52:42.437Z,10.60
2022-11-18T07:53:45.119Z,10.25
2022-11-18T07:54:47.442Z,10.68
2022-11-18T07:55:49.783Z,11.00
2022-11-18T07:56:52.160Z,10.90
2022-11-18T07:57:56.145Z,10.48
2022-11-18T07:58:58.497Z,10.85
2022-11-18T08:00:00.773Z,11.05
2022-11-18T08:01:09.387Z,10.40
2022-11-18T08:02:12.696Z,11.30
2022-11-18T08:03:15.016Z,10.40
2022-11-18T08:04:17.940Z,10.75
2022-11-18T08:05:20.489Z,10.60
2022-11-18T08:06:23.248Z,11.25
2022-11-18T08:07:25.802Z,10.77
2022-11-18T08:08:28.551Z,10.82
2022-11-18T08:09:30.830Z,9.98
2022-11-18T08:10:33.182Z,34.10
2022-11-18T08:11:35.793Z,9.40
2022-11-18T08:12:38.363Z,13.50
2022-11-18T08:13:40.977Z,12.52
2022-11-18T08:14:43.357Z,12.02
2022-11-18T08:15:45.684Z,13.23
2022-11-18T08:16:48.041Z,11.73
2022-11-18T08:17:50.390Z,12.07
2022-11-18T08:18:53.308Z,12.65
2022-11-18T08:19:55.615Z,12.27
2022-11-18T08:21:06.809Z,11.43
2022-11-18T08:22:09.933Z,11.13
2022-11-18T08:23:13.226Z,10.98
2022-11-18T08:24:15.549Z,11.15
2022-11-18T08:25:17.917Z,11.13
2022-11-18T08:26:21.054Z,11.93
2022-11-18T08:27:23.416Z,11.07
2022-11-18T08:28:25.806Z,10.52
2022-11-18T08:29:28.526Z,11.75
2022-11-18T08:30:32.544Z,10.68
2022-11-18T08:31:34.953Z,10.70
2022-11-18T08:32:37.320Z,10.10
2022-11-18T08:33:40.445Z,11.40
2022-11-18T08:34:42.777Z,11.13
2022-11-18T08:35:45.072Z,11.35
2022-11-18T08:36:47.429Z,11.07
2022-11-18T08:37:49.775Z,25.45
2022-11-18T08:38:52.403Z,13.35
2022-11-18T08:39:54.735Z,10.88
2022-11-18T08:40:58.288Z,12.45
2022-11-18T08:42:00.556Z,12.52
2022-11-18T08:43:02.828Z,12.18
2022-11-18T08:44:06.322Z,12.70
2022-11-18T08:45:09.021Z,11.95
2022-11-18T08:46:11.329Z,11.57
2022-11-18T08:47:13.665Z,11.27
2022-11-18T08:48:15.928Z,12.02
2022-11-18T08:49:18.367Z,11.48
2022-11-18T08:50:21.075Z,11.15
2022-11-18T08:51:24.039Z,11.48
2022-11-18T08:52:26.649Z,11.50
2022-11-18T08:53:29.236Z,11.18
2022-11-18T08:54:31.711Z,12.15
2022-11-18T08:55:34.001Z,11.57
2022-11-18T08:56:36.545Z,11.80
2022-11-18T08:57:38.909Z,11.80
2022-11-18T08:58:41.609Z,42.55
2022-11-18T08:59:43.933Z,10.75
2022-11-18T09:00:46.275Z,8.95
2022-11-18T09:01:48.739Z,7.93
2022-11-18T09:02:52.693Z,7.10
2022-11-18T09:03:55.778Z,7.28
2022-11-18T09:04:58.124Z,6.00
2022-11-18T09:06:14.401Z,5.82
2022-11-18T09:07:21.355Z,5.82
2022-11-18T09:08:26.396Z,5.13
2022-11-18T09:09:28.732Z,4.65
2022-11-18T09:10:31.088Z,8.25
2022-11-18T09:11:34.085Z,13.15
2022-11-18T09:12:36.412Z,29.88
2022-11-18T09:14:46.480Z,31.30
2022-11-18T09:15:17.246Z,34.42
2022-11-18T09:16:24.902Z,45.47
2022-11-18T09:17:29.972Z,30.92
2022-11-18T09:18:32.844Z,44.72
2022-11-18T09:19:50.530Z,41.55
2022-11-18T09:20:57.101Z,38.92
2022-11-18T09:21:59.412Z,37.45
2022-11-18T09:23:01.934Z,35.50
2022-11-18T09:24:05.885Z,29.63
2022-11-18T09:25:08.715Z,28.88
2022-11-18T09:26:13.636Z,29.15
2022-11-18T09:27:17.639Z,28.48
2022-11-18T09:28:27.073Z,28.02
2022-11-18T09:29:32.576Z,26.98
2022-11-18T09:30:35.055Z,26.48
2022-11-18T09:31:37.611Z,26.83
2022-11-18T09:32:39.975Z,28.63
2022-11-18T09:33:42.716Z,23.60
2022-11-18T09:34:45.003Z,25.58
2022-11-18T09:35:47.434Z,21.70
2022-11-18T09:36:49.884Z,22.73
2022-11-18T09:37:52.168Z,24.02
2022-11-18T09:38:54.954Z,28.42
2022-11-18T09:39:57.221Z,33.05
2022-11-18T09:41:23.247Z,20.98
2022-11-18T09:42:37.531Z,21.40
2022-11-18T09:43:51.649Z,19.25
2022-11-18T09:45:11.724Z,12.32
2022-11-18T09:46:35.047Z,17.42
2022-11-18T09:48:58.386Z,18.60
2022-11-18T09:50:47.425Z,17.60
2022-11-18T09:51:43.119Z,18.17
2022-11-18T09:53:17.069Z,20.20
2022-11-18T09:54:25.631Z,22.27
2022-11-18T09:55:29.436Z,20.90
2022-11-18T09:56:31.859Z,21.92
2022-11-18T09:57:48.802Z,22.67
2022-11-18T09:58:51.254Z,23.95
2022-11-18T09:59:53.599Z,23.98
2022-11-18T10:00:55.977Z,25.27
2022-11-18T10:02:21.153Z,23.35
2022-11-18T10:03:29.282Z,23.13
2022-11-18T10:04:31.760Z,23.25
2022-11-18T10:05:55.403Z,25.13
2022-11-18T10:06:57.964Z,24.05
2022-11-18T10:08:22.307Z,26.90
2022-11-18T10:09:41.470Z,24.58
2022-11-18T10:11:07.780Z,25.42
2022-11-18T10:12:39.836Z,25.48
2022-11-18T10:14:04.519Z,25.98
2022-11-18T10:15:30.623Z,25.92
2022-11-18T10:16:44.853Z,26.67
2022-11-18T10:18:58.487Z,26.88
2022-11-18T10:20:05.074Z,26.38
2022-11-18T10:21:32.237Z,27.42
2022-11-18T10:22:46.350Z,25.75
2022-11-18T10:23:54.928Z,28.08
2022-11-18T10:24:58.457Z,26.42
2022-11-18T10:26:01.027Z,27.30
2022-11-18T10:27:10.444Z,26.65
2022-11-18T10:28:24.245Z,27.05
2022-11-18T10:29:27.222Z,28.25
2022-11-18T10:30:31.378Z,28.23
2022-11-18T10:31:37.458Z,27.38
2022-11-18T10:32:56.161Z,26.38
2022-11-18T10:34:00.351Z,26.13
2022-11-18T10:35:02.778Z,28.60
2022-11-18T10:36:16.844Z,25.67
2022-11-18T10:37:52.920Z,25.83
2022-11-18T10:39:14.443Z,20.02
2022-11-18T10:40:28.630Z,19.35
2022-11-18T10:41:43.174Z,24.98
2022-11-18T10:42:46.185Z,29.08
2022-11-18T10:43:54.301Z,29.08
2022-11-18T10:45:25.072Z,30.42
2022-11-18T10:46:31.651Z,28.20
2022-11-18T10:47:34.228Z,28.10
2022-11-18T10:48:36.547Z,25.77
2022-11-18T10:49:39.953Z,27.40
2022-11-18T10:50:53.505Z,27.23
2022-11-18T10:52:11.274Z,25.13
2022-11-18T10:53:29.247Z,25.92
2022-11-18T10:54:31.699Z,26.13
2022-11-18T10:55:34.231Z,24.77
2022-11-18T10:57:03.040Z,25.50
2022-11-18T10:58:13.241Z,24.60
2022-11-18T10:59:28.530Z,24.13
2022-11-18T11:00:33.776Z,24.40
2022-11-18T11:01:36.130Z,23.55
2022-11-18T11:02:41.805Z,25.20
2022-11-18T11:03:52.763Z,24.60
2022-11-18T11:04:55.297Z,24.95
2022-11-18T11:06:15.802Z,26.45
2022-11-18T11:07:32.814Z,25.75
2022-11-18T11:08:39.965Z,26.38
2022-11-18T11:09:42.609Z,23.77
2022-11-18T11:10:56.040Z,23.40
2022-11-18T11:12:03.235Z,22.27
2022-11-18T11:13:16.328Z,22.85
2022-11-18T11:14:21.839Z,25.00
2022-11-18T11:15:36.449Z,24.80
2022-11-18T11:16:59.217Z,24.33
2022-11-18T11:18:29.257Z,23.70
2022-11-18T11:19:39.518Z,22.08
2022-11-18T11:20:42.164Z,23.40
2022-11-18T11:21:44.582Z,21.02
2022-11-18T11:22:47.209Z,21.67
2022-11-18T11:23:49.573Z,23.50
2022-11-18T11:24:51.962Z,24.08
2022-11-18T11:29:50.360Z,22.95
2022-11-18T11:31:29.887Z,22.13
2022-11-18T11:32:41.287Z,21.67
2022-11-18T11:35:07.587Z,22.13
2022-11-18T11:36:36.765Z,21.73
2022-11-18T11:37:52.099Z,21.55
2022-11-18T11:39:16.884Z,22.30
2022-11-18T11:40:26.147Z,21.52
2022-11-18T11:41:39.756Z,22.02
2022-11-18T11:43:12.791Z,22.48
2022-11-18T11:44:17.638Z,22.13
2022-11-18T11:45:36.297Z,23.33
2022-11-18T11:47:26.127Z,21.08
2022-11-18T11:48:41.273Z,21.55
2022-11-18T11:49:53.898Z,21.75
2022-11-18T11:51:05.688Z,20.35
2022-11-18T11:52:30.265Z,20.65
2022-11-18T11:53:58.003Z,21.23
2022-11-18T11:55:19.046Z,21.25
2022-11-18T11:57:09.224Z,20.55
2022-11-18T11:58:32.654Z,21.90
2022-11-18T11:59:51.775Z,22.45
2022-11-18T12:01:19.960Z,21.25
2022-11-18T12:02:37.273Z,20.75
2022-11-18T12:04:12.290Z,19.75
2022-11-18T12:05:36.158Z,20.35
2022-11-18T12:06:39.518Z,19.85
2022-11-18T12:08:08.037Z,20.05
2022-11-18T12:09:33.354Z,19.75
2022-11-18T12:11:01.627Z,21.10
2022-11-18T12:12:34.518Z,20.23
2022-11-18T12:14:00.884Z,20.65
2022-11-18T12:15:27.974Z,20.13
2022-11-18T12:16:47.225Z,19.42
2022-11-18T12:18:14.109Z,19.50
2022-11-18T12:19:19.716Z,19.83
2022-11-18T12:20:44.887Z,18.83
2022-11-18T12:21:48.890Z,19.52
2022-11-18T12:23:12.212Z,19.17
2022-11-18T12:24:17.412Z,18.85
2022-11-18T12:25:56.177Z,21.10
2022-11-18T12:27:05.612Z,18.15
2022-11-18T12:28:09.858Z,19.10
2022-11-18T12:29:21.557Z,19.00
2022-11-18T12:30:24.460Z,18.77
2022-11-18T12:31:32.522Z,19.95
2022-11-18T12:32:42.742Z,20.55
2022-11-18T12:33:57.879Z,20.23
2022-11-18T12:35:02.416Z,19.52
2022-11-18T12:36:05.059Z,19.08
2022-11-18T12:37:26.272Z,19.65
2022-11-18T12:38:31.332Z,18.08
2022-11-18T12:39:47.445Z,19.60
2022-11-18T12:40:52.907Z,18.65
2022-11-18T12:42:43.205Z,18.15
2022-11-18T12:43:48.203Z,17.70
2022-11-18T12:44:52.678Z,19.50
2022-11-18T12:45:57.099Z,18.92
2022-11-18T12:47:01.089Z,19.13
2022-11-18T12:48:03.671Z,18.08
2022-11-18T12:49:26.773Z,17.90
2022-11-18T12:50:49.232Z,18.10
2022-11-18T12:52:02.183Z,18.58
2022-11-18T12:53:04.998Z,18.30
2022-11-18T12:54:36.330Z,16.83
2022-11-18T12:55:39.573Z,18.27
2022-11-18T12:56:41.998Z,16.65
2022-11-18T12:57:44.394Z,18.30
2022-11-18T12:58:52.411Z,18.02
2022-11-18T12:59:55.068Z,18.80
2022-11-18T13:01:13.005Z,18.52
2022-11-18T13:02:27.681Z,18.38
2022-11-18T13:03:31.447Z,18.65
2022-11-18T13:04:33.903Z,19.08
2022-11-18T13:05:36.275Z,17.52
2022-11-18T13:06:39.572Z,16.67
2022-11-18T13:08:09.921Z,17.65
2022-11-18T13:09:18.998Z,16.90
2022-11-18T13:10:27.691Z,17.55
2022-11-18T13:11:44.431Z,18.23
2022-11-18T13:12:46.922Z,16.48
2022-11-18T13:14:11.673Z,17.88
2022-11-18T13:15:32.889Z,16.75
2022-11-18T13:17:05.012Z,16.23
2022-11-18T13:18:19.453Z,17.80
2022-11-18T13:19:23.442Z,16.23
2022-11-18T13:20:33.133Z,15.60
2022-11-18T13:21:54.476Z,17.63
2022-11-18T13:23:18.087Z,17.42
2022-11-18T13:24:22.267Z,16.05
2022-11-18T13:25:26.128Z,17.35
2022-11-18T13:26:31.805Z,16.92
2022-11-18T13:27:46.974Z,17.60
2022-11-18T13:29:17.967Z,15.57
2022-11-18T13:30:20.944Z,16.45
2022-11-18T13:31:35.338Z,17.00
2022-11-18T13:32:46.950Z,16.02
2022-11-18T13:33:50.263Z,15.57
2022-11-18T13:34:58.187Z,15.57
2022-11-18T13:36:01.183Z,15.90
2022-11-18T13:37:03.680Z,16.65
2022-11-18T13:38:08.275Z,15.18
2022-11-18T13:39:20.174Z,16.15
2022-11-18T13:41:04.457Z,15.85
2022-11-18T13:42:15.858Z,15.25
2022-11-18T13:43:25.924Z,16.35
2022-11-18T13:44:31.793Z,15.98
2022-11-18T13:45:34.751Z,16.52
2022-11-18T13:46:38.130Z,15.88
2022-11-18T13:47:57.210Z,15.68
2022-11-18T13:48:59.828Z,14.25
2022-11-18T13:50:13.316Z,16.17
2022-11-18T13:51:16.032Z,15.25
2022-11-18T13:52:29.958Z,14.88
2022-11-18T13:53:38.236Z,15.02
2022-11-18T13:54:41.635Z,14.52
2022-11-18T13:55:58.383Z,15.63
2022-11-18T13:57:00.833Z,14.35
2022-11-18T13:58:18.283Z,14.85
2022-11-18T13:59:23.659Z,13.60
2022-11-18T14:00:28.646Z,14.73
2022-11-18T14:01:33.708Z,15.25
2022-11-18T14:02:40.975Z,15.48
2022-11-18T14:03:46.178Z,14.25
2022-11-18T14:04:55.451Z,14.10
2022-11-18T14:05:59.206Z,16.08
2022-11-18T14:07:36.943Z,16.20
2022-11-18T14:08:40.271Z,14.05
2022-11-18T14:10:04.501Z,15.07
2022-11-18T14:11:07.510Z,14.18
2022-11-18T14:12:12.585Z,15.70
2022-11-18T14:13:25.941Z,18.00
2022-11-18T14:14:31.882Z,16.58
2022-11-18T14:15:43.220Z,24.08
2022-11-18T14:16:46.266Z,20.95
2022-11-18T14:17:56.968Z,17.25
2022-11-18T14:18:59.378Z,15.55
2022-11-18T14:20:09.954Z,16.27
2022-11-18T14:21:13.118Z,14.88
2022-11-18T14:22:19.771Z,14.57
2022-11-18T14:23:32.059Z,15.88
2022-11-18T14:24:34.353Z,14.95
2022-11-18T14:25:37.178Z,13.65
2022-11-18T14:26:39.647Z,14.75
2022-11-18T14:27:46.220Z,15.68
2022-11-18T14:28:56.224Z,15.27
2022-11-18T14:29:58.697Z,15.27
2022-11-18T14:31:13.015Z,14.82
2022-11-18T14:32:15.492Z,14.80
2022-11-18T14:33:36.829Z,15.23
2022-11-18T14:34:39.230Z,14.82
2022-11-18T14:35:44.533Z,12.63
2022-11-18T14:36:47.765Z,14.70
2022-11-18T14:37:56.525Z,15.25
2022-11-18T14:39:25.934Z,14.75
2022-11-18T14:40:29.185Z,15.00
2022-11-18T14:41:46.826Z,13.95
2022-11-18T14:42:49.114Z,15.35
2022-11-18T14:43:51.641Z,14.40
2022-11-18T14:44:53.962Z,14.75
2022-11-18T14:46:00.503Z,15.70
2022-11-18T14:47:19.196Z,14.77
2022-11-18T14:48:26.050Z,14.07
2022-11-18T14:49:32.795Z,12.93
2022-11-18T14:50:35.245Z,14.93
2022-11-18T14:51:37.695Z,13.98
2022-11-18T14:52:40.451Z,13.82
2022-11-18T14:53:43.992Z,14.07
2022-11-18T14:54:46.542Z,13.90
2022-11-18T14:55:52.221Z,13.27
2022-11-18T14:56:58.116Z,14.43